sensor_id;sensor_type;location;lat;lon;timestamp;P1;durP1;ratioP1;P2;durP2;ratioP2
66603;SDS011;53460;39.612;8.822;2024-03-02T00:02:16;3.28;;;1.52;;
66603;SDS011;53460;39.612;8.822;2024-03-02T00:04:44;5.15;;;1.55;;
66603;SDS011;53460;39.612;8.822;2024-03-02T00:07:09;6.70;;;1.42;;
66603;SDS011;53460;39.612;8.822;2024-03-02T00:09:39;7.65;;;1.83;;
66603;SDS011;53460;39.612;8.822;2024-03-02T00:12:04;4.35;;;1.38;;
66603;SDS011;53460;39.612;8.822;2024-03-02T00:14:30;6.18;;;1.77;;
66603;SDS011;53460;39.612;8.822;2024-03-02T00:16:56;5.40;;;1.40;;
66603;SDS011;53460;39.612;8.822;2024-03-02T00:19:22;4.13;;;1.60;;
66603;SDS011;53460;39.612;8.822;2024-03-02T00:21:48;10.98;;;2.08;;
66603;SDS011;53460;39.612;8.822;2024-03-02T00:26:59;7.97;;;1.48;;
66603;SDS011;53460;39.612;8.822;2024-03-02T00:29:26;7.65;;;1.63;;
66603;SDS011;53460;39.612;8.822;2024-03-02T00:31:53;6.07;;;1.55;;
66603;SDS011;53460;39.612;8.822;2024-03-02T00:34:19;5.40;;;1.63;;
66603;SDS011;53460;39.612;8.822;2024-03-02T00:36:44;7.65;;;1.60;;
66603;SDS011;53460;39.612;8.822;2024-03-02T00:39:11;10.98;;;1.48;;
66603;SDS011;53460;39.612;8.822;2024-03-02T00:41:38;4.82;;;1.50;;
66603;SDS011;53460;39.612;8.822;2024-03-02T00:44:07;5.15;;;1.63;;
66603;SDS011;53460;39.612;8.822;2024-03-02T00:46:38;8.48;;;1.70;;
66603;SDS011;53460;39.612;8.822;2024-03-02T00:51:36;6.32;;;1.25;;
66603;SDS011;53460;39.612;8.822;2024-03-02T00:54:04;8.65;;;2.35;;
66603;SDS011;53460;39.612;8.822;2024-03-02T00:56:31;5.30;;;1.90;;
66603;SDS011;53460;39.612;8.822;2024-03-02T00:58:58;7.40;;;1.73;;
66603;SDS011;53460;39.612;8.822;2024-03-02T01:01:23;3.97;;;1.35;;
66603;SDS011;53460;39.612;8.822;2024-03-02T01:03:49;2.03;;;0.93;;
66603;SDS011;53460;39.612;8.822;2024-03-02T01:06:15;3.00;;;1.52;;
66603;SDS011;53460;39.612;8.822;2024-03-02T01:08:42;7.15;;;1.88;;
66603;SDS011;53460;39.612;8.822;2024-03-02T01:11:08;5.30;;;1.30;;
66603;SDS011;53460;39.612;8.822;2024-03-02T01:13:34;4.18;;;1.17;;
66603;SDS011;53460;39.612;8.822;2024-03-02T01:16:00;7.45;;;1.45;;
66603;SDS011;53460;39.612;8.822;2024-03-02T01:18:27;3.45;;;1.10;;
66603;SDS011;53460;39.612;8.822;2024-03-02T01:20:52;4.82;;;1.02;;
66603;SDS011;53460;39.612;8.822;2024-03-02T01:23:20;4.35;;;1.40;;
66603;SDS011;53460;39.612;8.822;2024-03-02T01:25:46;4.30;;;1.98;;
66603;SDS011;53460;39.612;8.822;2024-03-02T01:28:13;3.60;;;1.38;;
66603;SDS011;53460;39.612;8.822;2024-03-02T01:30:39;4.13;;;1.23;;
66603;SDS011;53460;39.612;8.822;2024-03-02T01:33:06;4.30;;;1.25;;
66603;SDS011;53460;39.612;8.822;2024-03-02T01:35:32;5.80;;;1.40;;
66603;SDS011;53460;39.612;8.822;2024-03-02T01:37:58;8.10;;;1.52;;
66603;SDS011;53460;39.612;8.822;2024-03-02T01:40:23;7.20;;;1.50;;
66603;SDS011;53460;39.612;8.822;2024-03-02T01:42:52;8.32;;;1.83;;
66603;SDS011;53460;39.612;8.822;2024-03-02T01:45:23;7.18;;;1.80;;
66603;SDS011;53460;39.612;8.822;2024-03-02T01:47:49;7.78;;;1.55;;
66603;SDS011;53460;39.612;8.822;2024-03-02T01:50:16;6.53;;;1.38;;
66603;SDS011;53460;39.612;8.822;2024-03-02T01:52:49;9.15;;;1.55;;
66603;SDS011;53460;39.612;8.822;2024-03-02T01:55:15;6.30;;;1.48;;
66603;SDS011;53460;39.612;8.822;2024-03-02T01:57:40;5.80;;;1.30;;
66603;SDS011;53460;39.612;8.822;2024-03-02T02:00:06;9.38;;;2.03;;
66603;SDS011;53460;39.612;8.822;2024-03-02T02:02:37;6.07;;;1.45;;
66603;SDS011;53460;39.612;8.822;2024-03-02T02:05:02;8.48;;;1.50;;
66603;SDS011;53460;39.612;8.822;2024-03-02T02:07:29;7.32;;;1.95;;
66603;SDS011;53460;39.612;8.822;2024-03-02T02:09:54;7.35;;;1.90;;
66603;SDS011;53460;39.612;8.822;2024-03-02T02:12:20;5.75;;;1.60;;
66603;SDS011;53460;39.612;8.822;2024-03-02T02:14:49;4.25;;;1.52;;
66603;SDS011;53460;39.612;8.822;2024-03-02T02:17:17;8.75;;;1.52;;
66603;SDS011;53460;39.612;8.822;2024-03-02T02:19:43;5.70;;;1.55;;
66603;SDS011;53460;39.612;8.822;2024-03-02T02:22:09;6.95;;;1.33;;
66603;SDS011;53460;39.612;8.822;2024-03-02T02:24:35;14.77;;;1.92;;
66603;SDS011;53460;39.612;8.822;2024-03-02T02:27:01;11.02;;;2.03;;
66603;SDS011;53460;39.612;8.822;2024-03-02T02:29:27;3.85;;;1.48;;
66603;SDS011;53460;39.612;8.822;2024-03-02T02:31:52;5.70;;;1.45;;
66603;SDS011;53460;39.612;8.822;2024-03-02T02:34:18;6.32;;;1.48;;
66603;SDS011;53460;39.612;8.822;2024-03-02T02:36:44;7.22;;;1.45;;
66603;SDS011;53460;39.612;8.822;2024-03-02T02:39:13;5.00;;;1.25;;
66603;SDS011;53460;39.612;8.822;2024-03-02T02:41:41;8.60;;;1.52;;
66603;SDS011;53460;39.612;8.822;2024-03-02T02:44:07;7.18;;;1.38;;
66603;SDS011;53460;39.612;8.822;2024-03-02T02:46:33;6.30;;;1.23;;
66603;SDS011;53460;39.612;8.822;2024-03-02T02:48:59;11.05;;;2.30;;
66603;SDS011;53460;39.612;8.822;2024-03-02T02:51:24;6.47;;;1.55;;
66603;SDS011;53460;39.612;8.822;2024-03-02T02:53:51;8.85;;;1.40;;
66603;SDS011;53460;39.612;8.822;2024-03-02T02:56:16;5.05;;;1.33;;
66603;SDS011;53460;39.612;8.822;2024-03-02T02:58:42;6.72;;;1.80;;
66603;SDS011;53460;39.612;8.822;2024-03-02T03:01:08;3.13;;;1.25;;
66603;SDS011;53460;39.612;8.822;2024-03-02T03:03:34;2.83;;;0.90;;
66603;SDS011;53460;39.612;8.822;2024-03-02T03:05:59;3.65;;;1.10;;
66603;SDS011;53460;39.612;8.822;2024-03-02T03:08:25;6.95;;;1.48;;
66603;SDS011;53460;39.612;8.822;2024-03-02T03:10:51;3.42;;;1.33;;
66603;SDS011;53460;39.612;8.822;2024-03-02T03:13:16;6.13;;;1.05;;
66603;SDS011;53460;39.612;8.822;2024-03-02T03:15:42;8.90;;;2.88;;
66603;SDS011;53460;39.612;8.822;2024-03-02T03:18:08;9.07;;;1.60;;
66603;SDS011;53460;39.612;8.822;2024-03-02T03:20:35;3.47;;;1.33;;
66603;SDS011;53460;39.612;8.822;2024-03-02T03:23:01;3.45;;;1.48;;
66603;SDS011;53460;39.612;8.822;2024-03-02T03:25:29;7.13;;;1.75;;
66603;SDS011;53460;39.612;8.822;2024-03-02T03:27:57;4.35;;;1.10;;
66603;SDS011;53460;39.612;8.822;2024-03-02T03:30:23;4.57;;;1.27;;
66603;SDS011;53460;39.612;8.822;2024-03-02T03:32:49;4.00;;;1.25;;
66603;SDS011;53460;39.612;8.822;2024-03-02T03:35:14;5.13;;;0.82;;
66603;SDS011;53460;39.612;8.822;2024-03-02T03:37:41;5.93;;;1.25;;
66603;SDS011;53460;39.612;8.822;2024-03-02T03:40:07;4.57;;;0.93;;
66603;SDS011;53460;39.612;8.822;2024-03-02T03:42:38;4.45;;;1.25;;
66603;SDS011;53460;39.612;8.822;2024-03-02T03:45:04;4.65;;;1.23;;
66603;SDS011;53460;39.612;8.822;2024-03-02T03:47:31;2.65;;;1.17;;
66603;SDS011;53460;39.612;8.822;2024-03-02T03:49:57;4.85;;;1.35;;
66603;SDS011;53460;39.612;8.822;2024-03-02T03:52:23;3.97;;;1.00;;
66603;SDS011;53460;39.612;8.822;2024-03-02T03:54:49;4.63;;;1.27;;
66603;SDS011;53460;39.612;8.822;2024-03-02T03:57:15;7.78;;;1.08;;
66603;SDS011;53460;39.612;8.822;2024-03-02T03:59:41;2.70;;;0.93;;
66603;SDS011;53460;39.612;8.822;2024-03-02T04:02:08;6.95;;;1.05;;
66603;SDS011;53460;39.612;8.822;2024-03-02T04:04:34;4.13;;;0.85;;
66603;SDS011;53460;39.612;8.822;2024-03-02T04:07:00;5.43;;;1.17;;
66603;SDS011;53460;39.612;8.822;2024-03-02T04:09:26;4.70;;;1.38;;
66603;SDS011;53460;39.612;8.822;2024-03-02T04:11:52;3.92;;;0.75;;
66603;SDS011;53460;39.612;8.822;2024-03-02T04:14:18;3.13;;;1.10;;
66603;SDS011;53460;39.612;8.822;2024-03-02T04:16:43;5.18;;;0.98;;
66603;SDS011;53460;39.612;8.822;2024-03-02T04:19:09;4.18;;;1.23;;
66603;SDS011;53460;39.612;8.822;2024-03-02T04:21:35;3.30;;;1.05;;
66603;SDS011;53460;39.612;8.822;2024-03-02T04:24:00;2.38;;;0.93;;
66603;SDS011;53460;39.612;8.822;2024-03-02T04:26:26;4.47;;;0.93;;
66603;SDS011;53460;39.612;8.822;2024-03-02T04:28:52;4.95;;;1.15;;
66603;SDS011;53460;39.612;8.822;2024-03-02T04:31:19;4.53;;;1.70;;
66603;SDS011;53460;39.612;8.822;2024-03-02T04:33:45;4.70;;;1.27;;
66603;SDS011;53460;39.612;8.822;2024-03-02T04:36:11;2.67;;;1.20;;
66603;SDS011;53460;39.612;8.822;2024-03-02T04:38:39;3.33;;;1.15;;
66603;SDS011;53460;39.612;8.822;2024-03-02T04:41:05;3.35;;;1.30;;
66603;SDS011;53460;39.612;8.822;2024-03-02T04:43:32;1.08;;;0.88;;
66603;SDS011;53460;39.612;8.822;2024-03-02T04:45:58;4.28;;;0.90;;
66603;SDS011;53460;39.612;8.822;2024-03-02T04:48:24;5.03;;;1.42;;
66603;SDS011;53460;39.612;8.822;2024-03-02T04:50:50;3.92;;;1.00;;
66603;SDS011;53460;39.612;8.822;2024-03-02T04:53:16;5.82;;;1.38;;
66603;SDS011;53460;39.612;8.822;2024-03-02T04:55:41;3.58;;;1.30;;
66603;SDS011;53460;39.612;8.822;2024-03-02T04:58:07;4.45;;;1.35;;
66603;SDS011;53460;39.612;8.822;2024-03-02T05:00:33;2.60;;;1.05;;
66603;SDS011;53460;39.612;8.822;2024-03-02T05:02:59;4.68;;;1.20;;
66603;SDS011;53460;39.612;8.822;2024-03-02T05:05:24;5.80;;;1.00;;
66603;SDS011;53460;39.612;8.822;2024-03-02T05:07:51;4.85;;;1.45;;
66603;SDS011;53460;39.612;8.822;2024-03-02T05:10:17;2.70;;;1.00;;
66603;SDS011;53460;39.612;8.822;2024-03-02T05:12:43;3.20;;;0.93;;
66603;SDS011;53460;39.612;8.822;2024-03-02T05:15:09;7.05;;;1.13;;
66603;SDS011;53460;39.612;8.822;2024-03-02T05:17:38;5.50;;;1.63;;
66603;SDS011;53460;39.612;8.822;2024-03-02T05:20:08;6.20;;;0.88;;
66603;SDS011;53460;39.612;8.822;2024-03-02T05:22:34;4.93;;;1.52;;
66603;SDS011;53460;39.612;8.822;2024-03-02T05:25:00;2.15;;;0.95;;
66603;SDS011;53460;39.612;8.822;2024-03-02T05:27:27;3.92;;;1.10;;
66603;SDS011;53460;39.612;8.822;2024-03-02T05:29:53;7.57;;;0.98;;
66603;SDS011;53460;39.612;8.822;2024-03-02T05:32:18;2.83;;;0.93;;
66603;SDS011;53460;39.612;8.822;2024-03-02T05:34:44;3.65;;;0.95;;
66603;SDS011;53460;39.612;8.822;2024-03-02T05:37:10;3.75;;;1.00;;
66603;SDS011;53460;39.612;8.822;2024-03-02T05:39:35;3.40;;;0.98;;
66603;SDS011;53460;39.612;8.822;2024-03-02T05:42:01;1.88;;;0.70;;
66603;SDS011;53460;39.612;8.822;2024-03-02T05:44:26;3.05;;;1.13;;
66603;SDS011;53460;39.612;8.822;2024-03-02T05:46:52;8.13;;;1.70;;
66603;SDS011;53460;39.612;8.822;2024-03-02T05:49:17;3.22;;;1.30;;
66603;SDS011;53460;39.612;8.822;2024-03-02T05:51:43;5.95;;;1.75;;
66603;SDS011;53460;39.612;8.822;2024-03-02T05:54:09;5.70;;;1.85;;
66603;SDS011;53460;39.612;8.822;2024-03-02T05:56:35;5.50;;;2.05;;
66603;SDS011;53460;39.612;8.822;2024-03-02T05:59:01;5.35;;;3.53;;
66603;SDS011;53460;39.612;8.822;2024-03-02T06:01:39;6.53;;;2.50;;
66603;SDS011;53460;39.612;8.822;2024-03-02T06:04:06;6.00;;;1.85;;
66603;SDS011;53460;39.612;8.822;2024-03-02T06:06:32;8.50;;;1.85;;
66603;SDS011;53460;39.612;8.822;2024-03-02T06:09:02;4.35;;;1.00;;
66603;SDS011;53460;39.612;8.822;2024-03-02T06:11:34;3.42;;;1.10;;
66603;SDS011;53460;39.612;8.822;2024-03-02T06:14:01;4.93;;;1.10;;
66603;SDS011;53460;39.612;8.822;2024-03-02T06:16:27;4.88;;;1.13;;
66603;SDS011;53460;39.612;8.822;2024-03-02T06:18:53;5.88;;;1.38;;
66603;SDS011;53460;39.612;8.822;2024-03-02T06:21:19;6.95;;;2.28;;
66603;SDS011;53460;39.612;8.822;2024-03-02T06:23:45;5.63;;;2.75;;
66603;SDS011;53460;39.612;8.822;2024-03-02T06:26:11;7.35;;;2.85;;
66603;SDS011;53460;39.612;8.822;2024-03-02T06:28:37;4.55;;;2.60;;
66603;SDS011;53460;39.612;8.822;2024-03-02T06:31:03;5.97;;;2.55;;
66603;SDS011;53460;39.612;8.822;2024-03-02T06:33:29;5.13;;;2.10;;
66603;SDS011;53460;39.612;8.822;2024-03-02T06:35:54;9.40;;;3.28;;
66603;SDS011;53460;39.612;8.822;2024-03-02T06:38:20;8.48;;;1.55;;
66603;SDS011;53460;39.612;8.822;2024-03-02T06:40:46;7.78;;;2.17;;
66603;SDS011;53460;39.612;8.822;2024-03-02T06:43:11;6.63;;;4.68;;
66603;SDS011;53460;39.612;8.822;2024-03-02T06:45:37;10.77;;;5.10;;
66603;SDS011;53460;39.612;8.822;2024-03-02T06:48:03;8.43;;;4.32;;
66603;SDS011;53460;39.612;8.822;2024-03-02T06:50:29;7.63;;;3.60;;
66603;SDS011;53460;39.612;8.822;2024-03-02T06:52:55;7.55;;;4.18;;
66603;SDS011;53460;39.612;8.822;2024-03-02T06:55:23;9.32;;;6.75;;
66603;SDS011;53460;39.612;8.822;2024-03-02T06:57:49;8.40;;;5.22;;
66603;SDS011;53460;39.612;8.822;2024-03-02T07:00:16;7.45;;;5.03;;
66603;SDS011;53460;39.612;8.822;2024-03-02T07:02:43;9.30;;;4.95;;
66603;SDS011;53460;39.612;8.822;2024-03-02T07:05:10;6.53;;;3.78;;
66603;SDS011;53460;39.612;8.822;2024-03-02T07:07:36;8.32;;;4.30;;
66603;SDS011;53460;39.612;8.822;2024-03-02T07:10:05;14.40;;;6.13;;
66603;SDS011;53460;39.612;8.822;2024-03-02T07:12:32;15.85;;;9.02;;
66603;SDS011;53460;39.612;8.822;2024-03-02T07:14:58;14.75;;;8.10;;
66603;SDS011;53460;39.612;8.822;2024-03-02T07:17:30;12.98;;;8.57;;
66603;SDS011;53460;39.612;8.822;2024-03-02T07:19:56;15.25;;;9.65;;
66603;SDS011;53460;39.612;8.822;2024-03-02T07:22:22;10.60;;;6.20;;
66603;SDS011;53460;39.612;8.822;2024-03-02T07:24:48;11.05;;;6.38;;
66603;SDS011;53460;39.612;8.822;2024-03-02T07:27:14;11.82;;;8.07;;
66603;SDS011;53460;39.612;8.822;2024-03-02T07:29:41;16.35;;;11.25;;
66603;SDS011;53460;39.612;8.822;2024-03-02T07:32:07;22.50;;;18.52;;
66603;SDS011;53460;39.612;8.822;2024-03-02T07:34:33;8.50;;;5.35;;
66603;SDS011;53460;39.612;8.822;2024-03-02T07:36:59;10.15;;;3.97;;
66603;SDS011;53460;39.612;8.822;2024-03-02T07:39:25;7.40;;;4.93;;
66603;SDS011;53460;39.612;8.822;2024-03-02T07:41:52;11.70;;;6.53;;
66603;SDS011;53460;39.612;8.822;2024-03-02T07:44:18;8.13;;;3.85;;
66603;SDS011;53460;39.612;8.822;2024-03-02T07:46:44;10.20;;;6.28;;
66603;SDS011;53460;39.612;8.822;2024-03-02T07:49:17;22.45;;;16.80;;
66603;SDS011;53460;39.612;8.822;2024-03-02T07:51:46;27.45;;;22.05;;
66603;SDS011;53460;39.612;8.822;2024-03-02T07:54:11;17.58;;;13.00;;
66603;SDS011;53460;39.612;8.822;2024-03-02T07:56:37;22.85;;;16.58;;
66603;SDS011;53460;39.612;8.822;2024-03-02T07:59:03;8.23;;;4.65;;
66603;SDS011;53460;39.612;8.822;2024-03-02T08:01:30;10.00;;;4.60;;
66603;SDS011;53460;39.612;8.822;2024-03-02T08:04:00;8.15;;;4.82;;
66603;SDS011;53460;39.612;8.822;2024-03-02T08:06:28;5.72;;;4.60;;
66603;SDS011;53460;39.612;8.822;2024-03-02T08:08:54;7.22;;;3.55;;
66603;SDS011;53460;39.612;8.822;2024-03-02T08:11:20;7.45;;;2.97;;
66603;SDS011;53460;39.612;8.822;2024-03-02T08:13:47;6.57;;;3.38;;
66603;SDS011;53460;39.612;8.822;2024-03-02T08:16:13;5.63;;;2.03;;
66603;SDS011;53460;39.612;8.822;2024-03-02T08:18:45;4.68;;;2.08;;
66603;SDS011;53460;39.612;8.822;2024-03-02T08:21:12;9.15;;;2.22;;
66603;SDS011;53460;39.612;8.822;2024-03-02T08:23:38;5.03;;;1.80;;
66603;SDS011;53460;39.612;8.822;2024-03-02T08:26:06;4.50;;;1.30;;
66603;SDS011;53460;39.612;8.822;2024-03-02T08:28:32;6.22;;;2.30;;
66603;SDS011;53460;39.612;8.822;2024-03-02T08:30:58;5.53;;;1.48;;
66603;SDS011;53460;39.612;8.822;2024-03-02T08:33:24;3.67;;;1.05;;
66603;SDS011;53460;39.612;8.822;2024-03-02T08:35:50;5.80;;;1.33;;
66603;SDS011;53460;39.612;8.822;2024-03-02T08:38:16;7.20;;;1.38;;
66603;SDS011;53460;39.612;8.822;2024-03-02T08:40:41;5.85;;;1.65;;
66603;SDS011;53460;39.612;8.822;2024-03-02T08:43:07;5.85;;;1.77;;
66603;SDS011;53460;39.612;8.822;2024-03-02T08:45:33;2.35;;;1.23;;
66603;SDS011;53460;39.612;8.822;2024-03-02T08:47:59;5.53;;;1.33;;
66603;SDS011;53460;39.612;8.822;2024-03-02T08:50:26;2.40;;;0.93;;
66603;SDS011;53460;39.612;8.822;2024-03-02T08:52:51;5.82;;;1.42;;
66603;SDS011;53460;39.612;8.822;2024-03-02T08:55:17;3.58;;;0.90;;
66603;SDS011;53460;39.612;8.822;2024-03-02T08:57:43;3.65;;;1.00;;
66603;SDS011;53460;39.612;8.822;2024-03-02T09:00:08;4.47;;;1.15;;
66603;SDS011;53460;39.612;8.822;2024-03-02T09:02:35;4.07;;;1.02;;
66603;SDS011;53460;39.612;8.822;2024-03-02T09:05:00;3.88;;;0.82;;
66603;SDS011;53460;39.612;8.822;2024-03-02T09:07:26;4.50;;;1.00;;
66603;SDS011;53460;39.612;8.822;2024-03-02T09:09:52;3.83;;;1.00;;
66603;SDS011;53460;39.612;8.822;2024-03-02T09:12:18;3.88;;;1.17;;
66603;SDS011;53460;39.612;8.822;2024-03-02T09:14:44;4.88;;;1.08;;
66603;SDS011;53460;39.612;8.822;2024-03-02T09:17:12;3.95;;;1.20;;
66603;SDS011;53460;39.612;8.822;2024-03-02T09:19:38;3.67;;;0.90;;
66603;SDS011;53460;39.612;8.822;2024-03-02T09:22:04;3.78;;;0.90;;
66603;SDS011;53460;39.612;8.822;2024-03-02T09:24:31;2.83;;;0.90;;
66603;SDS011;53460;39.612;8.822;2024-03-02T09:26:58;4.57;;;1.23;;
66603;SDS011;53460;39.612;8.822;2024-03-02T09:29:24;1.75;;;0.70;;
66603;SDS011;53460;39.612;8.822;2024-03-02T09:31:50;5.30;;;0.90;;
66603;SDS011;53460;39.612;8.822;2024-03-02T09:34:16;4.75;;;1.30;;
66603;SDS011;53460;39.612;8.822;2024-03-02T09:36:42;5.70;;;1.65;;
66603;SDS011;53460;39.612;8.822;2024-03-02T09:39:08;6.97;;;1.10;;
66603;SDS011;53460;39.612;8.822;2024-03-02T09:41:35;5.40;;;1.13;;
66603;SDS011;53460;39.612;8.822;2024-03-02T09:44:02;3.22;;;1.00;;
66603;SDS011;53460;39.612;8.822;2024-03-02T09:46:28;3.75;;;0.88;;
66603;SDS011;53460;39.612;8.822;2024-03-02T09:48:54;4.53;;;0.95;;
66603;SDS011;53460;39.612;8.822;2024-03-02T09:51:20;4.53;;;1.20;;
66603;SDS011;53460;39.612;8.822;2024-03-02T09:53:46;7.40;;;1.17;;
66603;SDS011;53460;39.612;8.822;2024-03-02T09:56:12;4.50;;;0.90;;
66603;SDS011;53460;39.612;8.822;2024-03-02T09:58:38;3.08;;;1.00;;
66603;SDS011;53460;39.612;8.822;2024-03-02T10:01:05;3.78;;;1.13;;
66603;SDS011;53460;39.612;8.822;2024-03-02T10:03:31;6.47;;;1.33;;
66603;SDS011;53460;39.612;8.822;2024-03-02T10:08:53;9.10;;;5.95;;
66603;SDS011;53460;39.612;8.822;2024-03-02T10:11:33;7.32;;;1.50;;
66603;SDS011;53460;39.612;8.822;2024-03-02T10:14:05;5.75;;;1.15;;
66603;SDS011;53460;39.612;8.822;2024-03-02T10:16:36;3.38;;;1.02;;
66603;SDS011;53460;39.612;8.822;2024-03-02T10:19:18;2.90;;;1.50;;
66603;SDS011;53460;39.612;8.822;2024-03-02T10:21:52;4.13;;;1.58;;
66603;SDS011;53460;39.612;8.822;2024-03-02T10:24:19;4.57;;;1.50;;
66603;SDS011;53460;39.612;8.822;2024-03-02T10:26:46;4.65;;;1.00;;
66603;SDS011;53460;39.612;8.822;2024-03-02T10:29:12;3.55;;;1.08;;
66603;SDS011;53460;39.612;8.822;2024-03-02T10:31:38;8.05;;;3.00;;
66603;SDS011;53460;39.612;8.822;2024-03-02T10:34:05;3.67;;;1.20;;
66603;SDS011;53460;39.612;8.822;2024-03-02T10:36:32;3.25;;;1.15;;
66603;SDS011;53460;39.612;8.822;2024-03-02T10:39:01;10.07;;;1.50;;
66603;SDS011;53460;39.612;8.822;2024-03-02T10:41:34;4.72;;;1.10;;
66603;SDS011;53460;39.612;8.822;2024-03-02T10:44:04;3.10;;;1.00;;
66603;SDS011;53460;39.612;8.822;2024-03-02T10:46:31;5.30;;;0.75;;
66603;SDS011;53460;39.612;8.822;2024-03-02T10:48:58;4.60;;;1.25;;
66603;SDS011;53460;39.612;8.822;2024-03-02T10:51:25;4.80;;;0.98;;
66603;SDS011;53460;39.612;8.822;2024-03-02T10:53:53;3.30;;;1.00;;
66603;SDS011;53460;39.612;8.822;2024-03-02T10:56:21;2.38;;;1.00;;
66603;SDS011;53460;39.612;8.822;2024-03-02T10:58:55;4.40;;;0.82;;
66603;SDS011;53460;39.612;8.822;2024-03-02T11:01:24;2.22;;;1.05;;
66603;SDS011;53460;39.612;8.822;2024-03-02T11:03:51;1.40;;;0.68;;
66603;SDS011;53460;39.612;8.822;2024-03-02T11:06:17;2.15;;;0.80;;
66603;SDS011;53460;39.612;8.822;2024-03-02T11:08:43;2.53;;;1.15;;
66603;SDS011;53460;39.612;8.822;2024-03-02T11:11:16;3.50;;;0.90;;
66603;SDS011;53460;39.612;8.822;2024-03-02T11:13:48;2.65;;;1.98;;
66603;SDS011;53460;39.612;8.822;2024-03-02T11:16:23;3.72;;;1.10;;
66603;SDS011;53460;39.612;8.822;2024-03-02T11:19:07;3.65;;;1.00;;
66603;SDS011;53460;39.612;8.822;2024-03-02T11:21:35;4.43;;;1.67;;
66603;SDS011;53460;39.612;8.822;2024-03-02T11:26:46;3.05;;;1.40;;
66603;SDS011;53460;39.612;8.822;2024-03-02T11:32:04;5.85;;;1.75;;
66603;SDS011;53460;39.612;8.822;2024-03-02T11:34:35;3.60;;;0.93;;
66603;SDS011;53460;39.612;8.822;2024-03-02T11:37:01;4.75;;;1.63;;
66603;SDS011;53460;39.612;8.822;2024-03-02T11:39:28;3.28;;;0.80;;
66603;SDS011;53460;39.612;8.822;2024-03-02T11:41:54;4.53;;;0.98;;
66603;SDS011;53460;39.612;8.822;2024-03-02T11:44:21;3.67;;;0.70;;
66603;SDS011;53460;39.612;8.822;2024-03-02T11:46:51;6.40;;;1.80;;
66603;SDS011;53460;39.612;8.822;2024-03-02T11:52:07;3.70;;;2.22;;
66603;SDS011;53460;39.612;8.822;2024-03-02T11:54:35;4.13;;;1.15;;
66603;SDS011;53460;39.612;8.822;2024-03-02T11:57:05;3.47;;;1.40;;
66603;SDS011;53460;39.612;8.822;2024-03-02T11:59:33;3.22;;;1.08;;
66603;SDS011;53460;39.612;8.822;2024-03-02T12:01:59;3.10;;;0.80;;
66603;SDS011;53460;39.612;8.822;2024-03-02T12:04:25;6.78;;;1.60;;
66603;SDS011;53460;39.612;8.822;2024-03-02T12:06:55;5.43;;;1.98;;
66603;SDS011;53460;39.612;8.822;2024-03-02T12:09:22;4.80;;;2.45;;
66603;SDS011;53460;39.612;8.822;2024-03-02T12:11:47;7.22;;;2.15;;
66603;SDS011;53460;39.612;8.822;2024-03-02T12:14:13;0.90;;;0.65;;
66603;SDS011;53460;39.612;8.822;2024-03-02T12:16:39;1.38;;;0.63;;
66603;SDS011;53460;39.612;8.822;2024-03-02T12:19:08;3.55;;;1.25;;
66603;SDS011;53460;39.612;8.822;2024-03-02T12:21:34;2.08;;;1.10;;
66603;SDS011;53460;39.612;8.822;2024-03-02T12:23:59;6.43;;;1.85;;
66603;SDS011;53460;39.612;8.822;2024-03-02T12:26:25;2.50;;;1.00;;
66603;SDS011;53460;39.612;8.822;2024-03-02T12:28:51;4.93;;;4.18;;
66603;SDS011;53460;39.612;8.822;2024-03-02T12:31:17;3.22;;;1.27;;
66603;SDS011;53460;39.612;8.822;2024-03-02T12:33:43;3.33;;;0.98;;
66603;SDS011;53460;39.612;8.822;2024-03-02T12:36:13;4.13;;;1.05;;
66603;SDS011;53460;39.612;8.822;2024-03-02T12:38:43;4.13;;;1.42;;
66603;SDS011;53460;39.612;8.822;2024-03-02T12:41:09;1.67;;;0.88;;
66603;SDS011;53460;39.612;8.822;2024-03-02T12:43:35;3.80;;;1.98;;
66603;SDS011;53460;39.612;8.822;2024-03-02T12:46:00;6.30;;;3.20;;
66603;SDS011;53460;39.612;8.822;2024-03-02T12:48:26;7.63;;;2.70;;
66603;SDS011;53460;39.612;8.822;2024-03-02T12:50:52;5.15;;;3.05;;
66603;SDS011;53460;39.612;8.822;2024-03-02T12:53:18;6.15;;;3.65;;
66603;SDS011;53460;39.612;8.822;2024-03-02T12:55:43;4.85;;;1.90;;
66603;SDS011;53460;39.612;8.822;2024-03-02T12:58:19;2.90;;;1.77;;
66603;SDS011;53460;39.612;8.822;2024-03-02T13:00:46;7.32;;;5.95;;
66603;SDS011;53460;39.612;8.822;2024-03-02T13:03:12;4.68;;;3.13;;
66603;SDS011;53460;39.612;8.822;2024-03-02T13:05:39;3.95;;;2.05;;
66603;SDS011;53460;39.612;8.822;2024-03-02T13:08:06;2.83;;;1.63;;
66603;SDS011;53460;39.612;8.822;2024-03-02T13:10:32;9.77;;;2.10;;
66603;SDS011;53460;39.612;8.822;2024-03-02T13:12:58;3.95;;;1.88;;
66603;SDS011;53460;39.612;8.822;2024-03-02T13:15:26;5.57;;;3.60;;
66603;SDS011;53460;39.612;8.822;2024-03-02T13:17:52;3.10;;;2.53;;
66603;SDS011;53460;39.612;8.822;2024-03-02T13:20:18;4.20;;;2.92;;
66603;SDS011;53460;39.612;8.822;2024-03-02T13:22:45;4.00;;;3.60;;
66603;SDS011;53460;39.612;8.822;2024-03-02T13:25:11;5.78;;;2.40;;
66603;SDS011;53460;39.612;8.822;2024-03-02T13:27:36;4.95;;;1.50;;
66603;SDS011;53460;39.612;8.822;2024-03-02T13:30:02;3.28;;;0.85;;
66603;SDS011;53460;39.612;8.822;2024-03-02T13:32:31;3.33;;;1.67;;
66603;SDS011;53460;39.612;8.822;2024-03-02T13:34:57;1.65;;;1.25;;
66603;SDS011;53460;39.612;8.822;2024-03-02T13:37:22;3.33;;;1.17;;
66603;SDS011;53460;39.612;8.822;2024-03-02T13:39:48;3.75;;;1.48;;
66603;SDS011;53460;39.612;8.822;2024-03-02T13:42:14;4.50;;;1.30;;
66603;SDS011;53460;39.612;8.822;2024-03-02T13:44:40;2.67;;;1.20;;
66603;SDS011;53460;39.612;8.822;2024-03-02T13:47:10;4.35;;;0.95;;
66603;SDS011;53460;39.612;8.822;2024-03-02T13:49:36;2.83;;;0.70;;
66603;SDS011;53460;39.612;8.822;2024-03-02T13:52:03;1.00;;;0.70;;
66603;SDS011;53460;39.612;8.822;2024-03-02T13:54:38;4.18;;;1.15;;
66603;SDS011;53460;39.612;8.822;2024-03-02T13:57:11;4.70;;;1.27;;
66603;SDS011;53460;39.612;8.822;2024-03-02T13:59:37;0.93;;;0.60;;
66603;SDS011;53460;39.612;8.822;2024-03-02T14:02:03;1.17;;;0.70;;
66603;SDS011;53460;39.612;8.822;2024-03-02T14:04:31;1.63;;;0.85;;
66603;SDS011;53460;39.612;8.822;2024-03-02T14:06:58;0.98;;;0.52;;
66603;SDS011;53460;39.612;8.822;2024-03-02T14:09:24;1.92;;;1.13;;
66603;SDS011;53460;39.612;8.822;2024-03-02T14:11:52;3.67;;;0.88;;
66603;SDS011;53460;39.612;8.822;2024-03-02T14:14:18;6.18;;;1.23;;
66603;SDS011;53460;39.612;8.822;2024-03-02T14:16:44;5.07;;;1.35;;
66603;SDS011;53460;39.612;8.822;2024-03-02T14:19:10;3.88;;;1.50;;
66603;SDS011;53460;39.612;8.822;2024-03-02T14:21:37;1.08;;;0.65;;
66603;SDS011;53460;39.612;8.822;2024-03-02T14:24:03;3.05;;;0.52;;
66603;SDS011;53460;39.612;8.822;2024-03-02T14:26:29;2.33;;;0.88;;
66603;SDS011;53460;39.612;8.822;2024-03-02T14:28:55;3.83;;;0.80;;
66603;SDS011;53460;39.612;8.822;2024-03-02T14:31:21;5.28;;;2.45;;
66603;SDS011;53460;39.612;8.822;2024-03-02T14:33:46;3.55;;;1.70;;
66603;SDS011;53460;39.612;8.822;2024-03-02T14:36:12;2.60;;;1.48;;
66603;SDS011;53460;39.612;8.822;2024-03-02T14:38:38;3.28;;;2.00;;
66603;SDS011;53460;39.612;8.822;2024-03-02T14:41:04;1.38;;;0.68;;
66603;SDS011;53460;39.612;8.822;2024-03-02T14:43:30;14.95;;;2.17;;
66603;SDS011;53460;39.612;8.822;2024-03-02T14:45:56;3.20;;;1.60;;
66603;SDS011;53460;39.612;8.822;2024-03-02T14:48:22;5.57;;;1.17;;
66603;SDS011;53460;39.612;8.822;2024-03-02T14:50:48;7.80;;;1.90;;
66603;SDS011;53460;39.612;8.822;2024-03-02T14:53:13;4.00;;;2.75;;
66603;SDS011;53460;39.612;8.822;2024-03-02T14:55:39;19.25;;;6.30;;
66603;SDS011;53460;39.612;8.822;2024-03-02T14:58:05;4.80;;;1.13;;
66603;SDS011;53460;39.612;8.822;2024-03-02T15:00:31;4.95;;;1.15;;